createdAt,value
2023-01-18T00:00:43.610Z,86.16
2023-01-18T00:03:13.375Z,86.97
2023-01-18T00:05:43.655Z,85.84
2023-01-18T00:08:17.425Z,86.15
2023-01-18T00:10:46.759Z,86.94
2023-01-18T00:13:15.534Z,87.30
2023-01-18T00:15:44.524Z,86.46
2023-01-18T00:18:13.383Z,87.30
2023-01-18T00:20:43.969Z,86.51
2023-01-18T00:23:12.753Z,87.05
2023-01-18T00:25:41.556Z,87.50
2023-01-18T00:28:10.324Z,87.70
2023-01-18T00:30:39.145Z,87.96
2023-01-18T00:33:07.897Z,87.88
2023-01-18T00:35:37.129Z,88.20
2023-01-18T00:38:07.561Z,88.24
2023-01-18T00:40:37.091Z,87.66
2023-01-18T00:43:19.553Z,88.14
2023-01-18T00:45:48.440Z,88.60
2023-01-18T00:48:17.225Z,89.17
2023-01-18T00:50:46.570Z,89.79
2023-01-18T00:53:16.868Z,88.66
2023-01-18T00:55:45.666Z,88.89
2023-01-18T00:58:14.466Z,88.08
2023-01-18T01:00:43.576Z,88.03
2023-01-18T01:03:15.017Z,86.50
2023-01-18T01:05:57.491Z,86.86
2023-01-18T01:08:27.713Z,86.91
2023-01-18T01:11:06.096Z,87.17
2023-01-18T01:13:48.586Z,86.65
2023-01-18T01:16:31.582Z,85.85
2023-01-18T01:19:14.034Z,85.76
2023-01-18T01:21:56.815Z,84.79
2023-01-18T01:24:40.691Z,85.00
2023-01-18T01:27:10.918Z,84.92
2023-01-18T01:29:39.712Z,85.19
2023-01-18T01:32:08.579Z,84.99
2023-01-18T01:34:37.449Z,84.76
2023-01-18T01:37:06.238Z,84.73
2023-01-18T01:39:36.517Z,85.02
2023-01-18T01:42:05.659Z,85.62
2023-01-18T01:44:46.955Z,86.26
2023-01-18T01:47:28.124Z,85.47
2023-01-18T01:49:58.867Z,86.01
2023-01-18T01:52:29.097Z,85.69
2023-01-18T01:55:01.963Z,86.00
2023-01-18T01:57:32.009Z,86.42
2023-01-18T02:00:01.985Z,86.29
2023-01-18T02:02:31.496Z,86.39
2023-01-18T02:05:00.246Z,85.66
2023-01-18T02:07:29.877Z,85.93
2023-01-18T02:10:00.189Z,87.26
2023-01-18T02:12:29.027Z,86.57
2023-01-18T02:14:57.885Z,87.25
2023-01-18T02:17:36.300Z,85.71
2023-01-18T02:20:34.553Z,86.36
2023-01-18T02:23:24.258Z,87.38
2023-01-18T02:26:04.823Z,87.79
2023-01-18T02:28:35.939Z,87.99
2023-01-18T02:31:09.066Z,86.98
2023-01-18T02:33:41.289Z,88.50
2023-01-18T02:36:10.093Z,86.63
2023-01-18T02:38:40.467Z,87.19
2023-01-18T02:41:14.571Z,86.33
2023-01-18T02:44:01.248Z,86.11
2023-01-18T02:46:34.290Z,86.86
2023-01-18T02:49:08.515Z,85.70
2023-01-18T02:51:37.358Z,85.45
2023-01-18T02:54:07.882Z,86.44
2023-01-18T02:56:39.123Z,87.42
2023-01-18T02:59:11.174Z,86.39
2023-01-18T03:01:42.730Z,86.17
2023-01-18T03:04:12.834Z,86.33
2023-01-18T03:06:42.167Z,85.50
2023-01-18T03:09:11.019Z,87.21
2023-01-18T03:11:42.124Z,86.82
2023-01-18T03:14:18.010Z,87.18
2023-01-18T03:16:59.248Z,87.86
2023-01-18T03:19:49.573Z,87.16
2023-01-18T03:22:18.673Z,87.11
2023-01-18T03:24:46.500Z,86.98
2023-01-18T03:27:29.209Z,86.72
2023-01-18T03:30:13.025Z,87.30
2023-01-18T03:32:56.087Z,86.58
2023-01-18T03:35:27.091Z,87.41
2023-01-18T03:37:56.507Z,86.37
2023-01-18T03:40:27.702Z,86.61
2023-01-18T03:43:00.578Z,85.98
2023-01-18T03:45:32.323Z,87.26
2023-01-18T03:48:01.624Z,87.65
2023-01-18T03:50:33.772Z,88.16
2023-01-18T03:53:02.589Z,88.09
2023-01-18T03:55:33.907Z,88.96
2023-01-18T03:58:04.240Z,90.45
2023-01-18T04:00:34.481Z,89.62
2023-01-18T04:03:03.370Z,90.40
2023-01-18T04:05:32.578Z,91.21
2023-01-18T04:08:01.537Z,92.67
2023-01-18T04:10:30.353Z,91.76
2023-01-18T04:12:59.819Z,90.98
2023-01-18T04:15:28.872Z,90.74
2023-01-18T04:17:59.057Z,90.94
2023-01-18T04:20:27.882Z,90.39
2023-01-18T04:22:57.021Z,89.71
2023-01-18T04:25:27.165Z,90.82
2023-01-18T04:27:55.923Z,90.82
2023-01-18T04:30:24.666Z,90.35
2023-01-18T04:32:53.420Z,91.77
2023-01-18T04:35:23.855Z,90.79
2023-01-18T04:37:53.992Z,90.97
2023-01-18T04:40:22.743Z,91.02
2023-01-18T04:42:54.809Z,90.28
2023-01-18T04:45:23.585Z,91.06
2023-01-18T04:47:52.307Z,92.05
2023-01-18T04:50:22.441Z,91.50
2023-01-18T04:52:51.245Z,92.23
2023-01-18T04:55:21.143Z,93.22
2023-01-18T04:57:58.689Z,93.71
2023-01-18T05:00:27.831Z,94.29
2023-01-18T05:02:57.079Z,93.49
2023-01-18T05:05:27.848Z,94.04
2023-01-18T05:07:57.217Z,93.12
2023-01-18T05:10:25.959Z,94.85
2023-01-18T05:12:54.785Z,94.48
2023-01-18T05:15:23.613Z,95.40
2023-01-18T05:17:52.422Z,97.75
2023-01-18T05:20:21.450Z,96.85
2023-01-18T05:22:51.630Z,97.98
2023-01-18T05:25:20.444Z,97.38
2023-01-18T05:27:49.238Z,97.98
2023-01-18T05:30:18.734Z,98.72
2023-01-18T05:32:47.507Z,100.00
2023-01-18T05:35:16.370Z,100.00
2023-01-18T05:37:45.500Z,100.00
2023-01-18T05:40:16.895Z,100.00
2023-01-18T05:42:45.649Z,100.00
2023-01-18T05:45:14.909Z,100.00
2023-01-18T05:47:43.894Z,98.66
2023-01-18T05:50:30.929Z,97.56
2023-01-18T05:53:02.132Z,97.71
2023-01-18T05:55:32.684Z,97.88
2023-01-18T05:58:01.625Z,96.49
2023-01-18T06:00:31.498Z,96.61
2023-01-18T06:03:01.044Z,96.48
2023-01-18T06:05:30.265Z,96.35
2023-01-18T06:07:59.826Z,95.48
2023-01-18T06:10:28.571Z,94.10
2023-01-18T06:12:59.126Z,95.33
2023-01-18T06:15:28.161Z,97.69
2023-01-18T06:17:58.244Z,98.11
2023-01-18T06:20:30.640Z,97.69
2023-01-18T06:22:59.895Z,96.84
2023-01-18T06:25:29.043Z,95.44
2023-01-18T06:28:00.234Z,96.54
2023-01-18T06:30:29.256Z,95.02
2023-01-18T06:32:58.375Z,95.76
2023-01-18T06:35:30.537Z,96.01
2023-01-18T06:37:59.262Z,98.21
2023-01-18T06:40:28.149Z,99.37
2023-01-18T06:42:57.313Z,100.00
2023-01-18T06:45:29.722Z,100.00
2023-01-18T06:47:59.342Z,100.00
2023-01-18T06:50:28.748Z,100.00
2023-01-18T06:52:57.810Z,100.00
2023-01-18T06:55:27.809Z,100.00
2023-01-18T06:58:01.062Z,100.00
2023-01-18T07:00:36.709Z,100.00
2023-01-18T07:03:05.810Z,100.00
2023-01-18T07:05:34.936Z,100.00
2023-01-18T07:08:04.196Z,100.00
2023-01-18T07:10:33.003Z,100.00
2023-01-18T07:13:01.911Z,100.00
2023-01-18T07:15:32.139Z,100.00
2023-01-18T07:18:02.038Z,100.00
2023-01-18T07:20:31.141Z,100.00
2023-01-18T07:23:00.290Z,100.00
2023-01-18T07:25:32.674Z,100.00
2023-01-18T07:28:07.187Z,100.00
2023-01-18T07:30:37.339Z,100.00
2023-01-18T07:33:07.328Z,100.00
2023-01-18T07:35:36.293Z,99.61
2023-01-18T07:38:05.171Z,98.35
2023-01-18T07:40:35.093Z,98.53
2023-01-18T07:43:04.368Z,98.39
2023-01-18T07:45:33.465Z,99.49
2023-01-18T07:48:03.657Z,98.36
2023-01-18T07:50:33.916Z,98.25
2023-01-18T07:53:04.943Z,98.54
2023-01-18T07:55:34.857Z,98.98
2023-01-18T07:58:03.640Z,99.05
2023-01-18T08:00:33.417Z,98.70
2023-01-18T08:03:04.083Z,98.74
2023-01-18T08:05:33.613Z,98.88
2023-01-18T08:08:02.441Z,98.45
2023-01-18T08:10:31.654Z,99.20
2023-01-18T08:13:00.852Z,98.62
2023-01-18T08:15:30.119Z,99.40
2023-01-18T08:17:59.184Z,99.47
2023-01-18T08:20:29.342Z,99.20
2023-01-18T08:22:58.618Z,99.74
2023-01-18T08:25:30.061Z,100.00
2023-01-18T08:27:59.935Z,100.00
2023-01-18T08:30:28.774Z,100.00
2023-01-18T08:32:58.059Z,100.00
2023-01-18T08:35:28.870Z,100.00
2023-01-18T08:38:00.119Z,100.00
2023-01-18T08:40:31.678Z,100.00
2023-01-18T08:43:03.589Z,100.00
2023-01-18T08:48:19.000Z,100.00
2023-01-18T08:50:51.616Z,100.00
2023-01-18T08:53:20.568Z,100.00
2023-01-18T08:55:49.795Z,100.00
2023-01-18T08:58:18.611Z,100.00
2023-01-18T09:00:50.760Z,100.00
2023-01-18T09:03:21.923Z,100.00
2023-01-18T09:05:52.145Z,100.00
2023-01-18T09:08:21.070Z,98.87
2023-01-18T09:10:49.955Z,98.22
2023-01-18T09:13:19.110Z,98.90
2023-01-18T09:15:48.203Z,97.62
2023-01-18T09:18:35.394Z,97.02
2023-01-18T09:21:08.967Z,96.32
2023-01-18T09:23:40.259Z,96.35
2023-01-18T09:26:10.531Z,95.63
2023-01-18T09:28:39.344Z,95.36
2023-01-18T09:31:11.404Z,94.74
2023-01-18T09:33:51.243Z,94.56
2023-01-18T09:36:26.883Z,94.11
2023-01-18T09:38:56.155Z,94.77
2023-01-18T09:41:30.416Z,93.56
2023-01-18T09:44:00.088Z,92.75
2023-01-18T09:46:29.258Z,92.97
2023-01-18T09:49:01.952Z,92.53
2023-01-18T09:51:52.705Z,90.86
2023-01-18T09:54:29.756Z,89.96
2023-01-18T09:57:05.871Z,89.49
2023-01-18T09:59:35.903Z,88.00
2023-01-18T10:02:04.899Z,87.90
2023-01-18T10:04:36.543Z,86.90
2023-01-18T10:07:08.270Z,86.21
2023-01-18T10:09:40.349Z,85.69
2023-01-18T10:12:14.767Z,84.51
2023-01-18T10:14:46.730Z,84.27
2023-01-18T10:17:18.027Z,83.79
2023-01-18T10:19:46.977Z,83.02
2023-01-18T10:22:22.527Z,82.78
2023-01-18T10:24:55.608Z,82.16
2023-01-18T10:27:36.173Z,83.61
2023-01-18T10:30:14.489Z,83.05
2023-01-18T10:32:44.350Z,82.82
2023-01-18T10:35:16.730Z,82.91
2023-01-18T10:37:47.053Z,82.77
2023-01-18T10:40:34.686Z,82.41
2023-01-18T10:43:04.726Z,81.56
2023-01-18T10:45:35.046Z,81.43
2023-01-18T10:48:20.324Z,81.16
2023-01-18T10:50:53.051Z,80.60
2023-01-18T10:53:28.342Z,81.34
2023-01-18T10:55:59.680Z,81.65
2023-01-18T10:58:34.385Z,81.46
2023-01-18T11:01:04.536Z,82.36
2023-01-18T11:03:53.431Z,81.77
2023-01-18T11:06:22.194Z,82.78
2023-01-18T11:08:52.831Z,82.18
2023-01-18T11:11:51.443Z,81.84
2023-01-18T11:14:25.474Z,82.62
2023-01-18T11:16:59.898Z,82.03
2023-01-18T11:19:28.693Z,81.92
2023-01-18T11:21:57.479Z,83.81
2023-01-18T11:24:29.262Z,84.66
2023-01-18T11:27:00.507Z,84.54
2023-01-18T11:29:32.319Z,84.48
2023-01-18T11:32:03.918Z,85.70
2023-01-18T11:34:34.182Z,85.96
2023-01-18T11:37:03.377Z,86.62
2023-01-18T11:39:34.826Z,86.22
2023-01-18T11:42:18.214Z,86.41
2023-01-18T11:44:48.860Z,86.38
2023-01-18T11:47:21.957Z,87.42
2023-01-18T11:49:56.034Z,88.69
2023-01-18T11:52:29.493Z,88.60
2023-01-18T11:55:01.812Z,89.53
2023-01-18T11:57:30.560Z,90.74
2023-01-18T11:59:59.763Z,91.17
2023-01-18T12:02:38.839Z,92.04
2023-01-18T12:05:25.857Z,92.84
2023-01-18T12:08:01.796Z,93.82
2023-01-18T12:10:34.353Z,95.78
2023-01-18T12:16:06.111Z,96.93
2023-01-18T12:18:50.406Z,96.34
2023-01-18T12:21:22.275Z,96.11
2023-01-18T12:23:59.208Z,97.63
2023-01-18T12:26:36.910Z,97.50
2023-01-18T12:29:14.713Z,99.36
2023-01-18T12:31:54.447Z,100.00
2023-01-18T12:34:24.404Z,100.00
2023-01-18T12:37:04.752Z,100.00
2023-01-18T12:39:49.610Z,100.00
2023-01-18T12:42:23.389Z,100.00
2023-01-18T12:45:15.358Z,100.00
2023-01-18T12:47:52.607Z,100.00
2023-01-18T12:50:25.121Z,100.00
2023-01-18T12:52:55.386Z,100.00
2023-01-18T12:55:25.902Z,100.00
2023-01-18T12:57:59.180Z,100.00
2023-01-18T13:00:31.710Z,100.00
2023-01-18T13:03:02.606Z,100.00
2023-01-18T13:05:35.463Z,100.00
2023-01-18T13:08:09.652Z,100.00
2023-01-18T13:10:38.770Z,100.00
2023-01-18T13:13:09.046Z,100.00
2023-01-18T13:15:41.767Z,100.00
2023-01-18T13:18:14.355Z,100.00
2023-01-18T13:20:50.156Z,100.00
2023-01-18T13:23:25.133Z,100.00
2023-01-18T13:25:56.662Z,100.00
2023-01-18T13:28:28.134Z,100.00
2023-01-18T13:31:01.981Z,100.00
2023-01-18T13:33:32.901Z,100.00
2023-01-18T13:36:05.275Z,100.00
2023-01-18T13:39:20.630Z,100.00
2023-01-18T13:42:50.151Z,100.00
2023-01-18T13:45:22.139Z,100.00
2023-01-18T13:47:54.122Z,100.00
2023-01-18T13:50:40.056Z,100.00
2023-01-18T13:53:24.707Z,100.00
2023-01-18T13:56:22.591Z,100.00
2023-01-18T13:58:56.736Z,100.00
2023-01-18T14:01:28.907Z,100.00
2023-01-18T14:03:57.825Z,100.00
2023-01-18T14:06:29.479Z,100.00
2023-01-18T14:09:02.335Z,100.00
2023-01-18T14:11:31.979Z,100.00
2023-01-18T14:14:03.626Z,100.00
2023-01-18T14:16:34.543Z,100.00
2023-01-18T14:19:05.720Z,100.00
2023-01-18T14:21:43.962Z,100.00
2023-01-18T14:24:21.107Z,100.00
2023-01-18T14:26:50.063Z,100.00
2023-01-18T14:29:21.209Z,100.00
2023-01-18T14:31:53.043Z,100.00
2023-01-18T14:34:26.341Z,100.00
2023-01-18T14:36:55.390Z,100.00
2023-01-18T14:39:26.938Z,100.00
2023-01-18T14:42:00.856Z,100.00
2023-01-18T14:44:48.652Z,100.00
2023-01-18T14:47:28.204Z,100.00
2023-01-18T14:49:58.108Z,100.00
2023-01-18T14:52:30.567Z,100.00
2023-01-18T14:54:59.330Z,100.00
2023-01-18T14:57:28.575Z,100.00
2023-01-18T14:59:57.971Z,100.00
2023-01-18T15:02:29.526Z,100.00
2023-01-18T15:05:12.724Z,100.00
2023-01-18T15:07:41.555Z,100.00
2023-01-18T15:10:10.938Z,100.00
2023-01-18T15:12:40.091Z,100.00
2023-01-18T15:15:10.709Z,100.00
2023-01-18T15:17:40.856Z,100.00
2023-01-18T15:20:15.025Z,100.00
2023-01-18T15:22:43.770Z,100.00
2023-01-18T15:25:19.067Z,100.00
2023-01-18T15:27:52.594Z,100.00
2023-01-18T15:30:23.531Z,100.00
2023-01-18T15:32:59.536Z,100.00
2023-01-18T15:37:57.961Z,100.00
2023-01-18T15:40:28.773Z,100.00
2023-01-18T15:43:02.117Z,100.00
2023-01-18T15:45:31.983Z,100.00
2023-01-18T15:48:03.451Z,100.00
2023-01-18T15:50:35.808Z,100.00
2023-01-18T15:53:11.894Z,100.00
2023-01-18T15:55:42.455Z,100.00
2023-01-18T15:58:13.752Z,100.00
2023-01-18T16:00:44.365Z,100.00
2023-01-18T16:03:22.149Z,100.00
2023-01-18T16:06:07.883Z,100.00
2023-01-18T16:08:37.345Z,100.00
2023-01-18T16:11:06.646Z,100.00
2023-01-18T16:13:37.112Z,100.00
2023-01-18T16:16:14.390Z,100.00
2023-01-18T16:18:46.251Z,100.00
2023-01-18T16:21:19.553Z,100.00
2023-01-18T16:23:49.397Z,100.00
2023-01-18T16:26:23.294Z,100.00
2023-01-18T16:28:52.938Z,100.00
2023-01-18T16:31:24.095Z,100.00
2023-01-18T16:33:54.732Z,100.00
2023-01-18T16:36:25.718Z,100.00
2023-01-18T16:38:54.564Z,100.00
2023-01-18T16:41:23.661Z,100.00
2023-01-18T16:43:52.438Z,100.00
2023-01-18T16:46:21.262Z,100.00
2023-01-18T16:48:50.435Z,100.00
2023-01-18T16:51:20.660Z,100.00
2023-01-18T16:53:49.746Z,100.00
2023-01-18T16:56:18.516Z,100.00
2023-01-18T16:58:47.654Z,100.00
2023-01-18T17:01:17.385Z,100.00
2023-01-18T17:03:46.250Z,100.00
2023-01-18T17:06:18.022Z,100.00
2023-01-18T17:08:49.354Z,100.00
2023-01-18T17:11:18.604Z,100.00
2023-01-18T17:13:47.986Z,100.00
2023-01-18T17:16:18.141Z,100.00
2023-01-18T17:18:47.053Z,100.00
2023-01-18T17:21:15.855Z,100.00
2023-01-18T17:23:45.566Z,100.00
2023-01-18T17:26:17.009Z,100.00
2023-01-18T17:28:46.087Z,100.00
2023-01-18T17:31:14.861Z,100.00
2023-01-18T17:33:44.038Z,100.00
2023-01-18T17:36:12.791Z,100.00
2023-01-18T17:38:42.270Z,100.00
2023-01-18T17:41:19.425Z,100.00
2023-01-18T17:43:49.967Z,100.00
2023-01-18T17:46:20.906Z,100.00
2023-01-18T17:48:52.148Z,100.00
2023-01-18T17:51:21.271Z,100.00
2023-01-18T17:53:51.556Z,100.00
2023-01-18T17:56:20.529Z,100.00
2023-01-18T17:58:50.991Z,100.00
2023-01-18T18:01:20.005Z,100.00
2023-01-18T18:03:50.364Z,100.00
2023-01-18T18:06:30.258Z,100.00
2023-01-18T18:08:59.477Z,100.00
2023-01-18T18:11:28.270Z,100.00
2023-01-18T18:13:59.529Z,100.00
2023-01-18T18:16:29.116Z,100.00
2023-01-18T18:18:58.435Z,100.00
2023-01-18T18:21:27.619Z,100.00
2023-01-18T18:23:57.466Z,100.00
2023-01-18T18:26:26.217Z,100.00
2023-01-18T18:28:54.957Z,100.00
2023-01-18T18:31:25.206Z,100.00
2023-01-18T18:33:54.480Z,100.00
2023-01-18T18:36:27.822Z,100.00
2023-01-18T18:38:56.699Z,100.00
2023-01-18T18:41:25.447Z,100.00
2023-01-18T18:43:54.583Z,100.00
2023-01-18T18:46:25.077Z,100.00
2023-01-18T18:48:57.953Z,100.00
2023-01-18T18:51:32.409Z,100.00
2023-01-18T18:54:03.569Z,100.00
2023-01-18T18:56:34.287Z,100.00
2023-01-18T18:59:03.172Z,100.00
2023-01-18T19:01:33.798Z,100.00
2023-01-18T19:04:02.919Z,100.00
2023-01-18T19:06:31.771Z,100.00
2023-01-18T19:09:18.949Z,100.00
2023-01-18T19:11:55.162Z,100.00
2023-01-18T19:14:25.975Z,100.00
2023-01-18T19:16:56.626Z,100.00
2023-01-18T19:19:26.912Z,100.00
2023-01-18T19:21:55.786Z,100.00
2023-01-18T19:24:26.312Z,100.00
2023-01-18T19:26:56.356Z,100.00
2023-01-18T19:29:27.956Z,100.00
2023-01-18T19:31:58.455Z,100.00
2023-01-18T19:34:27.718Z,100.00
2023-01-18T19:36:57.371Z,100.00
2023-01-18T19:39:26.844Z,100.00
2023-01-18T19:41:58.284Z,100.00
2023-01-18T19:44:28.190Z,100.00
2023-01-18T19:46:58.520Z,100.00
2023-01-18T19:49:27.340Z,100.00
2023-01-18T19:51:56.210Z,100.00
2023-01-18T19:54:26.211Z,100.00
2023-01-18T19:56:55.333Z,100.00
2023-01-18T19:59:24.234Z,100.00
2023-01-18T20:01:53.239Z,100.00
2023-01-18T20:04:23.501Z,100.00
2023-01-18T20:06:52.363Z,100.00
2023-01-18T20:09:31.924Z,100.00
2023-01-18T20:12:08.714Z,100.00
2023-01-18T20:14:41.577Z,100.00
2023-01-18T20:17:11.214Z,100.00
2023-01-18T20:19:41.543Z,100.00
2023-01-18T20:22:10.401Z,100.00
2023-01-18T20:24:39.419Z,100.00
2023-01-18T20:27:15.917Z,100.00
2023-01-18T20:29:45.460Z,100.00
2023-01-18T20:32:18.106Z,100.00
2023-01-18T20:34:48.881Z,100.00
2023-01-18T20:37:36.105Z,100.00
2023-01-18T20:40:05.049Z,100.00
2023-01-18T20:42:34.176Z,100.00
2023-01-18T20:45:05.779Z,100.00
2023-01-18T20:47:34.869Z,100.00
2023-01-18T20:50:05.133Z,100.00
2023-01-18T20:52:34.007Z,100.00
2023-01-18T20:55:02.830Z,100.00
2023-01-18T20:57:49.425Z,100.00
2023-01-18T21:00:20.259Z,100.00
2023-01-18T21:02:49.230Z,100.00
2023-01-18T21:05:22.071Z,100.00
2023-01-18T21:07:51.227Z,100.00
2023-01-18T21:10:20.091Z,100.00
2023-01-18T21:12:49.209Z,100.00
2023-01-18T21:15:18.380Z,100.00
2023-01-18T21:17:47.193Z,100.00
2023-01-18T21:20:16.172Z,100.00
2023-01-18T21:22:47.508Z,100.00
2023-01-18T21:25:17.239Z,100.00
2023-01-18T21:27:45.987Z,100.00
2023-01-18T21:30:16.981Z,100.00
2023-01-18T21:32:45.847Z,100.00
2023-01-18T21:35:14.798Z,100.00
2023-01-18T21:37:43.537Z,100.00
2023-01-18T21:40:14.508Z,100.00
2023-01-18T21:42:56.871Z,100.00
2023-01-18T21:45:39.619Z,100.00
2023-01-18T21:48:09.083Z,100.00
2023-01-18T21:51:11.061Z,100.00
2023-01-18T21:53:56.332Z,100.00
2023-01-18T21:56:26.671Z,100.00
2023-01-18T21:58:56.239Z,100.00
2023-01-18T22:01:26.244Z,100.00
2023-01-18T22:04:09.540Z,100.00
2023-01-18T22:06:38.506Z,100.00
2023-01-18T22:09:08.025Z,100.00
2023-01-18T22:11:38.154Z,100.00
2023-01-18T22:14:07.575Z,100.00
2023-01-18T22:16:36.744Z,100.00
2023-01-18T22:19:06.361Z,100.00
2023-01-18T22:21:35.374Z,100.00
2023-01-18T22:24:04.655Z,100.00
2023-01-18T22:26:36.031Z,100.00
2023-01-18T22:29:06.462Z,100.00
2023-01-18T22:31:35.323Z,100.00
2023-01-18T22:34:05.440Z,100.00
2023-01-18T22:36:34.569Z,100.00
2023-01-18T22:39:03.406Z,100.00
2023-01-18T22:41:32.190Z,100.00
2023-01-18T22:44:00.995Z,100.00
2023-01-18T22:46:31.232Z,100.00
2023-01-18T22:49:00.166Z,100.00
2023-01-18T22:51:29.570Z,100.00
2023-01-18T22:53:58.378Z,100.00
2023-01-18T22:56:27.730Z,100.00
2023-01-18T22:58:56.785Z,100.00
2023-01-18T23:01:26.647Z,100.00
2023-01-18T23:03:57.435Z,100.00
2023-01-18T23:06:28.189Z,100.00
2023-01-18T23:08:57.255Z,100.00
2023-01-18T23:11:26.823Z,100.00
2023-01-18T23:14:13.262Z,100.00
2023-01-18T23:16:55.963Z,100.00
2023-01-18T23:19:29.623Z,100.00
2023-01-18T23:21:59.683Z,100.00
2023-01-18T23:24:28.630Z,100.00
2023-01-18T23:26:57.387Z,100.00
2023-01-18T23:29:26.576Z,100.00
2023-01-18T23:31:57.376Z,100.00
2023-01-18T23:34:28.449Z,99.08
2023-01-18T23:36:57.257Z,97.85
2023-01-18T23:39:39.933Z,98.53
2023-01-18T23:42:22.500Z,98.84
2023-01-18T23:45:06.264Z,99.97
2023-01-18T23:47:48.772Z,99.37
2023-01-18T23:50:33.419Z,99.21
2023-01-18T23:53:15.867Z,99.29
2023-01-18T23:55:44.903Z,98.43
2023-01-18T23:58:13.994Z,97.10
